Highland, New York
Current Conditions -  °F | °C
As of 12:53 AM on Friday 31 Oct 2014 (Local Time) from KPOU Reporting Station
Overcast Overcast  
Wind Chill:   Ceiling: 5000
Heat Index:   Visibility: 10mi
Dew Point:   Wind: 3mph
Humidity: 71%   Direction: 360°N
Pressure: 30.03"   Gusts: NA
Location:  41.72°N, 73.96°W
Report Text: KPOU 310453Z AUTO 36003KT 10SM OVC050 07/02 A3003 RMK AO2 SLP167 T00720022 401440033 TSNO
Loading
Personal Weather Stations






























Interactive Weather Map
Tropical Storm Tracking
New forecast layout! Learn more

10-Day Weather Forecast

Advertisements
Track Severe Weather on mobile